Time;durP1;ratioP1;P1;durP2;ratioP2;P2;SDS_P1;SDS_P2;PMS_P1;PMS_P2;Temp;Humidity;BMP_temperature;BMP_pressure;BME280_temperature;BME280_humidity;BME280_pressure;Samples;Min_cycle;Max_cycle;Signal;HPM_P1;HPM_P2
2019/05/23 00:04:20;;;;;;;4.29;3.99;;;;;;;20.08;47.99;100966.85;;;;-50
2019/05/23 00:07:16;;;;;;;4.81;4.41;;;;;;;20.08;48.03;100960.98;;;;-51
2019/05/23 00:10:19;;;;;;;4.37;4.07;;;;;;;20.07;48.03;100963.55;;;;-51
2019/05/23 00:13:40;;;;;;;4.42;4.03;;;;;;;20.06;48.01;100963.06;;;;-51
2019/05/23 00:16:13;;;;;;;4.78;4.38;;;;;;;20.06;47.93;100959.54;;;;-50
2019/05/23 00:19:13;;;;;;;4.43;4.03;;;;;;;20.05;48.05;100960.77;;;;-51
2019/05/23 00:22:13;;;;;;;4.51;4.12;;;;;;;20.05;48.01;100959.89;;;;-50
2019/05/23 00:25:15;;;;;;;4.53;4.13;;;;;;;20.05;48.00;100954.02;;;;-50
2019/05/23 00:28:13;;;;;;;4.27;3.97;;;;;;;20.04;47.94;100951.89;;;;-50
2019/05/23 00:31:22;;;;;;;4.71;4.29;;;;;;;20.03;47.95;100951.84;;;;-50
2019/05/23 00:34:13;;;;;;;4.89;4.46;;;;;;;20.03;47.94;100949.00;;;;-50
2019/05/23 00:37:13;;;;;;;4.58;4.18;;;;;;;20.03;47.88;100949.23;;;;-50
2019/05/23 00:40:14;;;;;;;4.39;3.99;;;;;;;20.02;47.98;100946.70;;;;-51
2019/05/23 00:43:13;;;;;;;4.28;3.89;;;;;;;20.02;47.92;100942.34;;;;-50
2019/05/23 00:46:13;;;;;;;4.38;4.01;;;;;;;20.01;47.91;100943.20;;;;-49
2019/05/23 00:49:13;;;;;;;4.24;3.94;;;;;;;20.01;47.95;100941.52;;;;-51
2019/05/23 00:52:13;;;;;;;4.30;3.93;;;;;;;20.00;47.97;100939.29;;;;-50
2019/05/23 00:55:14;;;;;;;4.51;4.20;;;;;;;20.00;47.98;100937.61;;;;-50
2019/05/23 00:58:13;;;;;;;4.77;4.37;;;;;;;19.99;47.89;100943.27;;;;-49
2019/05/23 01:01:13;;;;;;;4.55;4.13;;;;;;;19.99;47.97;100942.66;;;;-50
2019/05/23 01:04:13;;;;;;;4.11;3.81;;;;;;;19.99;47.90;100941.48;;;;-50
2019/05/23 01:07:13;;;;;;;4.39;3.99;;;;;;;19.98;47.90;100940.41;;;;-50
2019/05/23 01:10:14;;;;;;;4.30;4.00;;;;;;;19.98;47.90;100937.20;;;;-50
2019/05/23 01:13:13;;;;;;;4.49;4.11;;;;;;;19.97;47.94;100937.37;;;;-49
2019/05/23 01:16:13;;;;;;;4.49;4.09;;;;;;;19.98;47.92;100936.37;;;;-51
2019/05/23 01:19:13;;;;;;;4.59;4.19;;;;;;;19.97;47.86;100933.41;;;;-50
2019/05/23 01:22:14;;;;;;;4.30;4.00;;;;;;;19.97;47.87;100937.49;;;;-50
2019/05/23 01:25:15;;;;;;;4.03;3.73;;;;;;;19.96;47.91;100935.91;;;;-50
2019/05/23 01:28:13;;;;;;;4.51;4.11;;;;;;;19.96;47.88;100937.98;;;;-50
2019/05/23 01:31:18;;;;;;;4.47;4.12;;;;;;;19.96;47.90;100937.11;;;;-50
2019/05/23 01:34:14;;;;;;;4.39;4.09;;;;;;;19.94;47.91;100936.81;;;;-51
2019/05/23 01:37:13;;;;;;;4.31;3.93;;;;;;;19.95;47.85;100935.05;;;;-50
2019/05/23 01:40:13;;;;;;;4.67;4.27;;;;;;;19.94;47.87;100932.64;;;;-50
2019/05/23 01:43:13;;;;;;;4.28;3.95;;;;;;;19.93;47.82;100933.75;;;;-50
2019/05/23 01:46:13;;;;;;;4.67;4.13;;;;;;;19.93;47.91;100934.42;;;;-51
2019/05/23 01:49:14;;;;;;;4.27;3.97;;;;;;;19.92;47.83;100932.52;;;;-49
2019/05/23 01:52:13;;;;;;;4.60;4.20;;;;;;;19.92;47.80;100935.37;;;;-50
2019/05/23 01:55:13;;;;;;;4.47;4.07;;;;;;;19.92;47.85;100930.81;;;;-50
2019/05/23 01:58:13;;;;;;;4.31;3.94;;;;;;;19.91;47.87;100932.31;;;;-51
2019/05/23 02:01:13;;;;;;;4.23;3.93;;;;;;;19.92;47.86;100930.53;;;;-50
2019/05/23 02:04:13;;;;;;;4.43;4.09;;;;;;;19.91;47.81;100932.37;;;;-50
2019/05/23 02:07:13;;;;;;;4.27;3.90;;;;;;;19.91;47.77;100929.92;;;;-50
2019/05/23 02:10:13;;;;;;;4.13;3.83;;;;;;;19.90;47.84;100929.74;;;;-50
2019/05/23 02:13:13;;;;;;;4.57;4.17;;;;;;;19.90;47.80;100933.98;;;;-50
2019/05/23 02:16:14;;;;;;;4.35;4.01;;;;;;;19.90;47.76;100938.45;;;;-51
2019/05/23 02:19:13;;;;;;;4.21;3.86;;;;;;;19.90;47.76;100935.57;;;;-50
2019/05/23 02:22:13;;;;;;;4.17;3.84;;;;;;;19.89;47.92;100934.34;;;;-50
2019/05/23 02:25:15;;;;;;;4.18;3.86;;;;;;;19.89;47.82;100932.94;;;;-50
2019/05/23 02:28:14;;;;;;;4.13;3.83;;;;;;;19.88;47.84;100937.98;;;;-50
2019/05/23 02:31:13;;;;;;;4.26;3.96;;;;;;;19.88;47.80;100933.96;;;;-50
2019/05/23 02:34:14;;;;;;;4.26;3.96;;;;;;;19.87;47.82;100932.61;;;;-50
2019/05/23 02:37:50;;;;;;;4.29;3.95;;;;;;;19.87;47.76;100934.34;;;;-50
2019/05/23 02:40:21;;;;;;;4.19;3.80;;;;;;;19.87;47.76;100929.81;;;;-50
2019/05/23 02:43:14;;;;;;;4.53;4.13;;;;;;;19.86;47.79;100933.78;;;;-50
2019/05/23 02:46:27;;;;;;;4.04;3.74;;;;;;;19.86;47.79;100929.77;;;;-50
2019/05/23 02:49:13;;;;;;;4.38;4.01;;;;;;;19.86;47.83;100933.19;;;;-51
2019/05/23 02:52:13;;;;;;;4.08;3.78;;;;;;;19.86;47.79;100932.19;;;;-50
2019/05/23 02:55:14;;;;;;;4.35;4.05;;;;;;;19.85;47.82;100936.59;;;;-50
2019/05/23 02:58:13;;;;;;;4.62;4.22;;;;;;;19.85;47.72;100934.81;;;;-50
2019/05/23 03:01:13;;;;;;;4.33;4.02;;;;;;;19.84;47.79;100932.25;;;;-50
2019/05/23 03:04:17;;;;;;;4.10;3.80;;;;;;;19.84;47.77;100926.09;;;;-50
2019/05/23 03:07:13;;;;;;;4.24;3.94;;;;;;;19.84;47.73;100926.65;;;;-51
2019/05/23 03:10:15;;;;;;;4.37;4.03;;;;;;;19.84;47.73;100928.48;;;;-50
2019/05/23 03:13:13;;;;;;;4.15;3.85;;;;;;;19.83;47.77;100921.84;;;;-51
2019/05/23 03:16:13;;;;;;;4.25;3.95;;;;;;;19.84;47.74;100925.64;;;;-50
2019/05/23 03:19:13;;;;;;;4.17;3.87;;;;;;;19.82;47.75;100928.83;;;;-50
2019/05/23 03:22:13;;;;;;;4.17;3.87;;;;;;;19.83;47.76;100931.63;;;;-50
2019/05/23 03:25:13;;;;;;;4.19;3.87;;;;;;;19.82;47.79;100930.50;;;;-50
2019/05/23 03:30:19;;;;;;;4.31;4.01;;;;;;;19.81;47.74;100930.29;;;;-51
2019/05/23 03:33:13;;;;;;;4.10;3.80;;;;;;;19.81;47.77;100928.28;;;;-50
2019/05/23 03:36:13;;;;;;;4.44;4.04;;;;;;;19.80;47.76;100928.23;;;;-49
2019/05/23 03:39:13;;;;;;;4.31;4.01;;;;;;;19.80;47.72;100930.75;;;;-50
2019/05/23 03:42:13;;;;;;;3.93;3.62;;;;;;;19.81;47.69;100930.45;;;;-50
2019/05/23 03:45:19;;;;;;;4.36;3.96;;;;;;;19.82;47.71;100934.70;;;;-51
2019/05/23 03:48:13;;;;;;;4.15;3.85;;;;;;;19.83;47.77;100936.93;;;;-50
2019/05/23 03:51:13;;;;;;;4.17;3.87;;;;;;;19.84;47.67;100933.52;;;;-50
2019/05/23 03:54:14;;;;;;;4.03;3.73;;;;;;;19.86;47.62;100930.00;;;;-60
2019/05/23 03:57:13;;;;;;;3.88;3.58;;;;;;;19.89;47.72;100930.48;;;;-50
2019/05/23 04:00:16;;;;;;;3.99;3.69;;;;;;;19.92;47.68;100930.24;;;;-51
2019/05/23 04:03:13;;;;;;;3.79;3.49;;;;;;;19.96;47.76;100933.41;;;;-50
2019/05/23 04:06:13;;;;;;;3.93;3.63;;;;;;;19.99;47.71;100933.88;;;;-51
2019/05/23 04:09:14;;;;;;;3.77;3.47;;;;;;;20.03;47.81;100928.20;;;;-50
2019/05/23 04:12:13;;;;;;;4.09;3.79;;;;;;;20.07;47.86;100930.75;;;;-52
2019/05/23 04:15:13;;;;;;;3.89;3.59;;;;;;;20.12;47.99;100933.08;;;;-50
2019/05/23 04:18:13;;;;;;;3.80;3.50;;;;;;;20.15;47.93;100931.38;;;;-51
2019/05/23 04:21:13;;;;;;;3.94;3.64;;;;;;;20.18;47.93;100925.77;;;;-50
2019/05/23 04:24:13;;;;;;;3.59;3.29;;;;;;;20.23;47.96;100922.05;;;;-51
2019/05/23 04:27:13;;;;;;;3.84;3.54;;;;;;;20.25;47.87;100925.50;;;;-59
2019/05/23 04:30:13;;;;;;;3.75;3.45;;;;;;;20.28;47.96;100925.20;;;;-59
2019/05/23 04:33:13;;;;;;;3.59;3.29;;;;;;;20.31;47.97;100925.96;;;;-59
2019/05/23 04:36:13;;;;;;;3.65;3.35;;;;;;;20.35;48.04;100923.88;;;;-59
2019/05/23 04:39:13;;;;;;;3.60;3.30;;;;;;;20.38;47.93;100922.84;;;;-60
2019/05/23 04:42:13;;;;;;;3.59;3.20;;;;;;;20.41;47.80;100924.77;;;;-59
2019/05/23 04:45:13;;;;;;;3.75;3.45;;;;;;;20.44;47.87;100925.31;;;;-58
2019/05/23 04:48:13;;;;;;;3.69;3.33;;;;;;;20.46;47.94;100929.61;;;;-59
2019/05/23 04:51:13;;;;;;;3.56;3.26;;;;;;;20.49;47.92;100924.17;;;;-60
2019/05/23 04:54:13;;;;;;;3.37;3.11;;;;;;;20.51;47.92;100922.02;;;;-59
2019/05/23 04:57:13;;;;;;;3.33;2.99;;;;;;;20.52;47.90;100925.64;;;;-58
2019/05/23 05:00:13;;;;;;;3.49;3.19;;;;;;;20.54;47.89;100919.38;;;;-58
2019/05/23 05:03:13;;;;;;;3.61;3.31;;;;;;;20.58;47.93;100921.75;;;;-58
2019/05/23 05:06:13;;;;;;;4.87;3.53;;;;;;;20.60;47.72;100918.31;;;;-57
2019/05/23 05:09:23;;;;;;;3.73;3.43;;;;;;;20.60;47.73;100919.44;;;;-58
2019/05/23 05:12:13;;;;;;;4.69;3.33;;;;;;;20.61;47.61;100923.52;;;;-57
2019/05/23 05:15:14;;;;;;;3.23;2.99;;;;;;;20.62;47.39;100925.73;;;;-57
2019/05/23 05:18:13;;;;;;;4.99;3.25;;;;;;;20.64;47.35;100928.75;;;;-57
2019/05/23 05:21:13;;;;;;;4.36;3.15;;;;;;;20.65;47.14;100933.83;;;;-57
2019/05/23 05:24:13;;;;;;;9.68;3.94;;;;;;;20.61;47.07;100936.87;;;;-53
2019/05/23 05:27:13;;;;;;;6.03;5.43;;;;;;;20.58;46.67;100939.47;;;;-56
2019/05/23 05:30:13;;;;;;;7.05;6.35;;;;;;;20.53;46.24;100940.75;;;;-56
2019/05/23 05:33:13;;;;;;;7.62;6.79;;;;;;;20.50;45.99;100941.71;;;;-56
2019/05/23 05:36:13;;;;;;;8.21;7.40;;;;;;;20.46;45.85;100945.61;;;;-57
2019/05/23 05:39:13;;;;;;;7.70;6.95;;;;;;;20.45;45.94;100950.09;;;;-58
2019/05/23 05:42:13;;;;;;;8.31;7.40;;;;;;;20.41;45.83;100950.44;;;;-57
2019/05/23 05:45:13;;;;;;;9.78;7.64;;;;;;;20.37;45.85;100947.91;;;;-57
2019/05/23 05:48:13;;;;;;;8.91;7.83;;;;;;;20.35;45.70;100946.19;;;;-57
2019/05/23 05:51:13;;;;;;;9.67;7.67;;;;;;;20.38;46.15;100943.75;;;;-58
2019/05/23 05:54:13;;;;;;;8.65;7.37;;;;;;;20.43;46.19;100950.60;;;;-56
2019/05/23 05:57:13;;;;;;;10.51;6.70;;;;;;;20.49;46.51;100954.48;;;;-58
2019/05/23 06:00:29;;;;;;;7.29;6.42;;;;;;;20.53;46.54;100952.42;;;;-56
2019/05/23 06:03:13;;;;;;;6.94;6.18;;;;;;;20.56;46.80;100947.10;;;;-58
2019/05/23 06:05:04;;;;;;;;;;;;;;;;;;;;;-53
2019/05/23 06:06:20;;;;;;;6.45;5.76;;;;;;;20.59;46.66;100944.56;;;;-55
2019/05/23 06:09:19;;;;;;;6.07;5.55;;;;;;;20.63;46.70;100942.96;;;;-58
2019/05/23 06:12:13;;;;;;;5.85;5.26;;;;;;;20.66;46.75;100948.81;;;;-57
2019/05/23 06:15:13;;;;;;;6.22;5.63;;;;;;;20.68;46.81;100949.25;;;;-60
2019/05/23 06:18:13;;;;;;;5.92;5.31;;;;;;;20.71;46.77;100953.02;;;;-58
2019/05/23 06:21:15;;;;;;;7.93;5.55;;;;;;;20.76;47.21;100951.80;;;;-58
2019/05/23 06:24:13;;;;;;;6.20;5.31;;;;;;;20.77;47.09;100948.99;;;;-54
2019/05/23 06:27:17;;;;;;;7.32;5.17;;;;;;;20.79;47.14;100948.48;;;;-50
2019/05/23 06:30:14;;;;;;;5.73;5.15;;;;;;;20.81;47.12;100947.05;;;;-53
2019/05/23 06:33:13;;;;;;;8.31;5.38;;;;;;;20.83;47.21;100948.10;;;;-55
2019/05/23 06:36:13;;;;;;;5.87;5.18;;;;;;;20.84;47.25;100952.18;;;;-51
2019/05/23 06:39:13;;;;;;;5.88;5.28;;;;;;;20.83;47.15;100951.33;;;;-53
2019/05/23 06:42:13;;;;;;;6.77;5.05;;;;;;;20.85;47.25;100954.41;;;;-58
2019/05/23 06:45:13;;;;;;;5.55;4.87;;;;;;;20.86;47.18;100957.91;;;;-57
2019/05/23 06:48:13;;;;;;;6.55;4.93;;;;;;;20.87;47.11;100958.30;;;;-55
2019/05/23 06:51:13;;;;;;;5.65;5.12;;;;;;;20.88;47.23;100954.65;;;;-54
2019/05/23 06:54:13;;;;;;;5.29;4.79;;;;;;;20.88;47.20;100953.14;;;;-56
2019/05/23 06:57:13;;;;;;;5.54;4.95;;;;;;;20.91;47.31;100956.20;;;;-52
2019/05/23 07:00:13;;;;;;;5.97;4.69;;;;;;;20.92;47.60;100952.09;;;;-50
2019/05/23 07:03:13;;;;;;;5.50;4.84;;;;;;;20.92;47.29;100945.78;;;;-51
2019/05/23 07:06:13;;;;;;;5.65;4.59;;;;;;;20.94;47.19;100947.65;;;;-50
2019/05/23 07:09:13;;;;;;;4.97;4.53;;;;;;;20.96;47.21;100948.20;;;;-51
2019/05/23 07:12:13;;;;;;;6.00;4.63;;;;;;;20.98;47.26;100951.25;;;;-51
2019/05/23 07:15:13;;;;;;;5.14;4.64;;;;;;;20.99;47.32;100954.16;;;;-52
2019/05/23 07:18:13;;;;;;;5.23;4.55;;;;;;;21.00;47.26;100960.76;;;;-50
2019/05/23 07:21:13;;;;;;;5.17;4.58;;;;;;;21.03;47.10;100966.26;;;;-51
2019/05/23 07:24:13;;;;;;;6.31;4.50;;;;;;;21.04;47.26;100965.87;;;;-51
2019/05/23 07:27:13;;;;;;;5.54;4.21;;;;;;;21.05;47.15;100969.83;;;;-51
2019/05/23 07:30:13;;;;;;;6.19;4.27;;;;;;;21.06;47.36;100969.87;;;;-51
2019/05/23 07:33:13;;;;;;;8.48;4.31;;;;;;;21.08;47.35;100971.16;;;;-51
2019/05/23 07:36:13;;;;;;;4.80;4.39;;;;;;;21.08;47.24;100969.75;;;;-50
2019/05/23 07:39:13;;;;;;;4.75;4.31;;;;;;;21.09;47.13;100971.08;;;;-50
2019/05/23 07:42:13;;;;;;;4.85;4.39;;;;;;;21.10;47.10;100967.05;;;;-51
2019/05/23 07:45:17;;;;;;;4.58;4.17;;;;;;;21.10;47.02;100967.16;;;;-50
2019/05/23 07:48:13;;;;;;;6.25;4.15;;;;;;;21.11;47.12;100971.41;;;;-51
2019/05/23 07:51:13;;;;;;;4.85;4.41;;;;;;;21.11;47.12;100971.58;;;;-50
2019/05/23 07:54:27;;;;;;;5.21;4.23;;;;;;;21.12;47.22;100970.17;;;;-51
2019/05/23 07:57:14;;;;;;;5.29;4.15;;;;;;;21.13;47.10;100970.05;;;;-50
2019/05/23 08:00:19;;;;;;;5.40;4.39;;;;;;;21.15;47.18;100974.67;;;;-51
2019/05/23 08:03:13;;;;;;;5.88;4.13;;;;;;;21.12;46.85;100968.66;;;;-52
2019/05/23 08:06:13;;;;;;;7.47;4.12;;;;;;;21.11;47.11;100970.33;;;;-50
2019/05/23 08:09:13;;;;;;;4.85;4.38;;;;;;;21.09;47.02;100965.54;;;;-51
2019/05/23 08:12:13;;;;;;;4.71;4.31;;;;;;;21.09;47.10;100965.16;;;;-52
2019/05/23 08:15:13;;;;;;;8.18;4.45;;;;;;;21.10;47.31;100961.95;;;;-50
2019/05/23 08:18:13;;;;;;;13.08;4.77;;;;;;;21.11;47.71;100963.84;;;;-52
2019/05/23 08:21:13;;;;;;;6.91;4.11;;;;;;;21.12;47.20;100964.41;;;;-50
2019/05/23 08:24:13;;;;;;;7.72;4.46;;;;;;;21.15;47.34;100962.75;;;;-52
2019/05/23 08:27:13;;;;;;;7.79;4.43;;;;;;;21.13;47.28;100966.90;;;;-51
2019/05/23 08:30:13;;;;;;;9.80;4.45;;;;;;;21.10;47.24;100958.26;;;;-51
2019/05/23 08:33:13;;;;;;;7.99;4.32;;;;;;;21.08;47.24;100958.27;;;;-51
2019/05/23 08:36:14;;;;;;;10.09;4.29;;;;;;;21.07;47.22;100959.63;;;;-51
2019/05/23 08:39:13;;;;;;;11.75;4.51;;;;;;;21.05;47.15;100955.95;;;;-52
2019/05/23 08:42:13;;;;;;;5.28;3.99;;;;;;;21.03;47.17;100952.60;;;;-52
2019/05/23 08:45:13;;;;;;;7.40;4.13;;;;;;;21.01;47.14;100950.83;;;;-51
2019/05/23 08:48:13;;;;;;;5.37;3.90;;;;;;;21.00;47.07;100945.54;;;;-51
2019/05/23 08:51:13;;;;;;;4.50;4.00;;;;;;;20.98;47.04;100943.59;;;;-51
2019/05/23 08:54:13;;;;;;;4.91;3.99;;;;;;;20.96;47.06;100936.62;;;;-51
2019/05/23 08:57:13;;;;;;;5.17;4.02;;;;;;;20.94;47.09;100935.55;;;;-51
2019/05/23 09:00:13;;;;;;;8.28;3.93;;;;;;;20.93;47.09;100931.87;;;;-52
2019/05/23 09:03:13;;;;;;;4.51;4.07;;;;;;;20.91;47.08;100926.09;;;;-51
2019/05/23 09:06:13;;;;;;;4.49;3.99;;;;;;;20.89;47.05;100928.27;;;;-51
2019/05/23 09:09:13;;;;;;;4.80;4.07;;;;;;;20.88;47.05;100926.28;;;;-52
2019/05/23 09:12:13;;;;;;;4.41;4.01;;;;;;;20.87;47.01;100924.45;;;;-51
2019/05/23 09:15:13;;;;;;;6.55;4.17;;;;;;;20.86;47.12;100928.70;;;;-52
2019/05/23 09:18:13;;;;;;;5.21;3.71;;;;;;;20.84;47.10;100926.93;;;;-55
2019/05/23 09:21:13;;;;;;;4.67;3.95;;;;;;;20.83;47.07;100924.53;;;;-54
2019/05/23 09:24:13;;;;;;;4.81;3.89;;;;;;;20.81;47.10;100917.94;;;;-56
2019/05/23 09:27:13;;;;;;;5.53;3.77;;;;;;;20.80;47.08;100918.45;;;;-50
2019/05/23 09:30:13;;;;;;;4.37;3.89;;;;;;;20.79;47.08;100916.36;;;;-49
2019/05/23 09:33:13;;;;;;;4.41;3.73;;;;;;;20.78;47.13;100918.56;;;;-55
2019/05/23 09:36:13;;;;;;;3.75;3.45;;;;;;;20.76;47.09;100916.66;;;;-55
2019/05/23 09:39:17;;;;;;;4.44;4.04;;;;;;;20.75;47.06;100918.19;;;;-56
2019/05/23 09:42:13;;;;;;;4.46;3.73;;;;;;;20.74;47.09;100915.45;;;;-54
2019/05/23 09:45:13;;;;;;;4.17;3.80;;;;;;;20.73;47.06;100913.62;;;;-55
2019/05/23 09:48:13;;;;;;;5.53;3.97;;;;;;;20.72;47.07;100920.17;;;;-54
2019/05/23 09:51:13;;;;;;;4.00;3.67;;;;;;;20.71;47.07;100912.57;;;;-56
2019/05/23 09:54:13;;;;;;;4.51;4.07;;;;;;;20.70;47.07;100911.34;;;;-56
2019/05/23 09:57:13;;;;;;;4.23;3.67;;;;;;;20.68;47.10;100904.70;;;;-57
2019/05/23 10:00:15;;;;;;;5.32;3.79;;;;;;;20.68;47.11;100901.07;;;;-54
2019/05/23 10:03:13;;;;;;;4.29;3.55;;;;;;;20.66;47.07;100895.45;;;;-55
2019/05/23 10:06:13;;;;;;;4.37;3.79;;;;;;;20.66;47.05;100899.47;;;;-56
2019/05/23 10:09:13;;;;;;;3.80;3.50;;;;;;;20.65;47.08;100897.52;;;;-56
2019/05/23 10:12:13;;;;;;;5.15;3.71;;;;;;;20.64;47.11;100895.85;;;;-54
2019/05/23 10:15:24;;;;;;;4.37;3.79;;;;;;;20.63;47.10;100889.26;;;;-54
2019/05/23 10:18:17;;;;;;;4.72;3.83;;;;;;;20.61;47.13;100892.30;;;;-55
2019/05/23 10:21:13;;;;;;;4.08;3.72;;;;;;;20.62;47.23;100886.97;;;;-57
2019/05/23 10:24:13;;;;;;;4.64;3.57;;;;;;;20.63;47.22;100889.09;;;;-55
2019/05/23 10:27:13;;;;;;;3.79;3.49;;;;;;;20.63;47.22;100890.38;;;;-58
2019/05/23 10:30:15;;;;;;;6.73;3.65;;;;;;;20.63;47.24;100884.89;;;;-53
2019/05/23 10:33:13;;;;;;;4.03;3.55;;;;;;;20.63;47.29;100879.69;;;;-52
2019/05/23 10:36:13;;;;;;;3.73;3.39;;;;;;;20.63;47.32;100876.78;;;;-52
2019/05/23 10:39:13;;;;;;;4.15;3.33;;;;;;;20.64;47.35;100871.85;;;;-52
2019/05/23 10:42:13;;;;;;;4.33;3.63;;;;;;;20.64;47.36;100866.42;;;;-51
2019/05/23 10:45:13;;;;;;;5.04;3.67;;;;;;;20.64;47.38;100865.75;;;;-58
2019/05/23 10:48:14;;;;;;;4.63;3.60;;;;;;;20.65;47.42;100862.00;;;;-59
2019/05/23 10:51:13;;;;;;;3.76;3.45;;;;;;;20.64;47.35;100854.34;;;;-59
2019/05/23 10:54:13;;;;;;;3.81;3.51;;;;;;;20.63;47.34;100851.09;;;;-60
2019/05/23 10:57:13;;;;;;;3.70;3.40;;;;;;;20.62;47.34;100851.72;;;;-59
2019/05/23 11:00:18;;;;;;;4.75;3.45;;;;;;;20.62;47.32;100852.46;;;;-59
2019/05/23 11:03:13;;;;;;;4.05;3.29;;;;;;;20.61;47.28;100845.88;;;;-59
2019/05/23 11:06:13;;;;;;;3.88;3.52;;;;;;;20.59;47.27;100841.52;;;;-59
2019/05/23 11:09:13;;;;;;;4.06;3.45;;;;;;;20.59;47.26;100836.75;;;;-60
2019/05/23 11:12:13;;;;;;;3.75;3.45;;;;;;;20.58;47.28;100835.83;;;;-59
2019/05/23 11:15:13;;;;;;;3.68;3.38;;;;;;;20.58;47.25;100831.63;;;;-59
2019/05/23 11:18:13;;;;;;;3.45;3.15;;;;;;;20.56;47.32;100833.16;;;;-59
2019/05/23 11:21:13;;;;;;;4.45;3.28;;;;;;;20.55;47.25;100831.88;;;;-59
2019/05/23 11:24:13;;;;;;;3.67;3.37;;;;;;;20.55;47.26;100830.93;;;;-59
2019/05/23 11:27:13;;;;;;;4.06;3.67;;;;;;;20.54;47.23;100831.33;;;;-59
2019/05/23 11:30:21;;;;;;;4.87;3.35;;;;;;;20.53;47.24;100827.05;;;;-59
2019/05/23 11:33:13;;;;;;;3.51;3.21;;;;;;;20.53;47.18;100825.53;;;;-60
2019/05/23 11:36:13;;;;;;;3.49;3.19;;;;;;;20.51;47.23;100823.91;;;;-59
2019/05/23 11:39:13;;;;;;;3.60;3.30;;;;;;;20.50;47.19;100818.39;;;;-59
2019/05/23 11:42:13;;;;;;;4.87;3.45;;;;;;;20.50;47.21;100818.49;;;;-60
2019/05/23 11:45:13;;;;;;;4.71;3.26;;;;;;;20.50;47.20;100813.25;;;;-59
2019/05/23 11:48:13;;;;;;;3.58;3.28;;;;;;;20.49;47.19;100811.19;;;;-59
2019/05/23 11:51:13;;;;;;;3.44;3.10;;;;;;;20.49;47.18;100808.06;;;;-59
2019/05/23 11:54:13;;;;;;;3.36;3.10;;;;;;;20.47;47.18;100807.78;;;;-59
2019/05/23 11:57:13;;;;;;;5.19;3.22;;;;;;;20.47;47.33;100802.58;;;;-54
2019/05/23 12:00:15;;;;;;;3.44;3.14;;;;;;;20.50;47.33;100796.47;;;;-49
2019/05/23 12:03:13;;;;;;;3.68;3.35;;;;;;;20.51;47.41;100799.75;;;;-52
2019/05/23 12:06:13;;;;;;;4.23;3.50;;;;;;;20.52;47.42;100792.91;;;;-51
2019/05/23 12:09:13;;;;;;;4.40;3.33;;;;;;;20.51;47.51;100790.08;;;;-53
2019/05/23 12:12:13;;;;;;;3.59;3.29;;;;;;;20.50;47.49;100784.39;;;;-54
2019/05/23 12:15:17;;;;;;;3.73;3.04;;;;;;;20.49;47.45;100781.37;;;;-54
2019/05/23 12:18:13;;;;;;;3.71;3.26;;;;;;;20.49;47.43;100779.59;;;;-51
2019/05/23 12:21:13;;;;;;;3.53;3.18;;;;;;;20.49;47.38;100777.97;;;;-53
2019/05/23 12:24:13;;;;;;;3.57;3.26;;;;;;;20.48;47.38;100773.56;;;;-51
2019/05/23 12:27:13;;;;;;;3.56;3.10;;;;;;;20.48;47.38;100775.91;;;;-53
2019/05/23 12:30:13;;;;;;;3.59;3.13;;;;;;;20.47;47.41;100772.17;;;;-51
2019/05/23 12:33:13;;;;;;;3.83;3.17;;;;;;;20.47;47.35;100771.50;;;;-52
2019/05/23 12:36:13;;;;;;;4.41;3.13;;;;;;;20.47;47.35;100767.74;;;;-51
2019/05/23 12:39:13;;;;;;;3.55;3.05;;;;;;;20.46;47.32;100765.08;;;;-51
2019/05/23 12:42:13;;;;;;;3.60;3.17;;;;;;;20.45;47.31;100755.91;;;;-53
2019/05/23 12:45:13;;;;;;;3.38;2.94;;;;;;;20.44;47.35;100753.80;;;;-51
2019/05/23 12:48:29;;;;;;;3.39;3.09;;;;;;;20.44;47.33;100753.75;;;;-51
2019/05/23 12:51:13;;;;;;;3.52;3.10;;;;;;;20.43;47.28;100754.59;;;;-51
2019/05/23 12:54:13;;;;;;;3.30;2.98;;;;;;;20.43;47.27;100745.86;;;;-52
2019/05/23 12:57:13;;;;;;;3.50;2.93;;;;;;;20.41;47.28;100741.24;;;;-51
2019/05/23 13:00:22;;;;;;;3.06;2.85;;;;;;;20.42;47.20;100738.56;;;;-53
2019/05/23 13:03:14;;;;;;;3.86;3.04;;;;;;;20.45;47.39;100742.77;;;;-48
2019/05/23 13:06:13;;;;;;;3.45;3.04;;;;;;;20.46;47.28;100736.49;;;;-50
2019/05/23 13:09:13;;;;;;;3.85;3.07;;;;;;;20.46;47.33;100729.22;;;;-51
2019/05/23 13:12:13;;;;;;;3.09;2.85;;;;;;;20.45;47.40;100733.66;;;;-50
2019/05/23 13:15:13;;;;;;;4.64;3.13;;;;;;;20.44;47.29;100734.16;;;;-51
2019/05/23 13:18:13;;;;;;;3.74;3.05;;;;;;;20.44;47.25;100736.06;;;;-50
2019/05/23 13:21:13;;;;;;;5.14;3.03;;;;;;;20.43;47.32;100733.23;;;;-50
2019/05/23 13:24:13;;;;;;;3.75;2.96;;;;;;;20.42;47.29;100735.55;;;;-51
2019/05/23 13:27:13;;;;;;;3.25;2.95;;;;;;;20.43;47.27;100738.53;;;;-52
2019/05/23 13:30:13;;;;;;;3.29;2.90;;;;;;;20.41;47.27;100729.83;;;;-50
2019/05/23 13:33:13;;;;;;;3.29;2.90;;;;;;;20.41;47.34;100728.79;;;;-50
2019/05/23 13:36:13;;;;;;;3.85;2.93;;;;;;;20.40;47.30;100728.62;;;;-50
2019/05/23 13:39:13;;;;;;;3.22;2.92;;;;;;;20.40;47.28;100725.93;;;;-50
2019/05/23 13:42:14;;;;;;;4.05;2.89;;;;;;;20.40;47.27;100726.56;;;;-50
2019/05/23 13:45:13;;;;;;;5.46;2.93;;;;;;;20.40;47.21;100722.53;;;;-52
2019/05/23 13:48:13;;;;;;;4.37;2.90;;;;;;;20.38;47.32;100715.60;;;;-50
2019/05/23 13:51:13;;;;;;;3.92;2.87;;;;;;;20.38;47.23;100714.67;;;;-50
2019/05/23 13:54:13;;;;;;;3.04;2.76;;;;;;;20.37;47.21;100719.42;;;;-50
2019/05/23 13:57:13;;;;;;;3.93;3.01;;;;;;;20.38;47.17;100714.16;;;;-50
2019/05/23 14:00:14;;;;;;;3.83;2.90;;;;;;;20.36;47.22;100709.38;;;;-50
2019/05/23 14:03:13;;;;;;;2.85;2.62;;;;;;;20.36;47.17;100705.45;;;;-50
2019/05/23 14:06:13;;;;;;;3.43;2.79;;;;;;;20.36;47.19;100701.59;;;;-50
2019/05/23 14:09:13;;;;;;;3.11;2.81;;;;;;;20.35;47.14;100701.28;;;;-50
2019/05/23 14:12:13;;;;;;;3.20;2.69;;;;;;;20.35;47.18;100689.03;;;;-50
2019/05/23 14:15:16;;;;;;;3.15;2.75;;;;;;;20.35;47.26;100685.78;;;;-52
2019/05/23 14:18:16;;;;;;;5.31;2.99;;;;;;;20.38;47.36;100683.56;;;;-48
2019/05/23 14:21:13;;;;;;;40.64;5.51;;;;;;;20.38;47.43;100678.88;;;;-57
2019/05/23 14:24:13;;;;;;;12.03;3.39;;;;;;;20.43;47.44;100677.64;;;;-52
2019/05/23 14:27:21;;;;;;;11.29;3.65;;;;;;;20.43;47.45;100672.34;;;;-54
2019/05/23 14:30:31;;;;;;;9.35;3.46;;;;;;;20.44;47.56;100666.78;;;;-53
2019/05/23 14:33:48;;;;;;;11.67;3.42;;;;;;;20.45;47.53;100666.09;;;;-56
2019/05/23 14:36:22;;;;;;;8.07;3.13;;;;;;;20.46;47.56;100666.81;;;;-57
2019/05/23 14:39:18;;;;;;;7.70;3.22;;;;;;;20.48;47.62;100658.36;;;;-54
2019/05/23 14:48:27;;;;;;;9.65;3.31;;;;;;;20.50;47.59;100649.09;;;;-51
2019/05/23 14:54:58;;;;;;;6.73;3.09;;;;;;;20.51;47.65;100663.63;;;;-56
2019/05/23 14:57:13;;;;;;;13.82;3.66;;;;;;;20.54;47.90;100643.39;;;;-51
2019/05/23 15:00:13;;;;;;;18.03;3.49;;;;;;;20.62;48.51;100641.12;;;;-54
2019/05/23 15:03:13;;;;;;;22.63;4.21;;;;;;;20.64;48.39;100641.04;;;;-52
2019/05/23 15:06:13;;;;;;;17.19;3.79;;;;;;;20.67;48.74;100636.20;;;;-58
2019/05/23 15:09:13;;;;;;;16.36;3.71;;;;;;;20.68;48.89;100634.66;;;;-52
2019/05/23 15:12:13;;;;;;;15.31;3.69;;;;;;;20.71;48.90;100635.36;;;;-54
2019/05/23 15:15:13;;;;;;;22.70;4.36;;;;;;;20.74;49.54;100632.97;;;;-53
2019/05/23 15:18:13;;;;;;;15.73;3.65;;;;;;;20.77;49.80;100630.52;;;;-51
2019/05/23 15:21:13;;;;;;;16.11;3.79;;;;;;;20.79;50.06;100626.73;;;;-58
2019/05/23 15:24:13;;;;;;;12.27;3.73;;;;;;;20.82;50.45;100625.45;;;;-53
2019/05/23 15:27:13;;;;;;;13.83;3.77;;;;;;;20.85;50.35;100622.78;;;;-54
2019/05/23 15:30:13;;;;;;;13.83;3.80;;;;;;;20.88;50.35;100618.27;;;;-57
2019/05/23 15:33:13;;;;;;;14.33;3.65;;;;;;;20.89;50.88;100621.00;;;;-57
2019/05/23 15:36:13;;;;;;;16.18;3.54;;;;;;;20.93;50.96;100620.66;;;;-57
2019/05/23 15:39:13;;;;;;;15.82;3.65;;;;;;;20.95;51.07;100623.87;;;;-51
2019/05/23 15:42:13;;;;;;;12.84;3.63;;;;;;;20.97;50.87;100622.05;;;;-51
2019/05/23 15:45:13;;;;;;;20.78;3.93;;;;;;;21.00;50.91;100616.45;;;;-52
2019/05/23 15:48:13;;;;;;;15.44;3.60;;;;;;;21.02;51.16;100618.11;;;;-47
2019/05/23 15:51:15;;;;;;;17.15;3.85;;;;;;;21.06;50.98;100614.58;;;;-49
2019/05/23 15:54:18;;;;;;;20.61;4.01;;;;;;;21.05;50.27;100615.38;;;;-48
2019/05/23 15:57:18;;;;;;;17.11;3.86;;;;;;;21.05;50.63;100605.98;;;;-48
2019/05/23 16:03:31;;;;;;;21.21;3.85;;;;;;;21.06;50.46;100602.63;;;;-58
2019/05/23 16:06:13;;;;;;;15.73;3.95;;;;;;;21.07;50.45;100600.08;;;;-58
2019/05/23 16:09:13;;;;;;;22.93;4.30;;;;;;;21.07;50.36;100597.83;;;;-54
2019/05/23 16:12:13;;;;;;;25.98;4.12;;;;;;;21.09;50.39;100591.97;;;;-58
2019/05/23 16:15:14;;;;;;;25.11;3.94;;;;;;;21.08;50.33;100589.31;;;;-59
2019/05/23 16:18:13;;;;;;;18.06;3.93;;;;;;;21.09;50.41;100586.49;;;;-52
2019/05/23 16:21:13;;;;;;;16.20;3.91;;;;;;;21.10;50.38;100582.00;;;;-55
2019/05/23 16:24:13;;;;;;;24.40;4.51;;;;;;;21.13;50.26;100582.69;;;;-56
2019/05/23 16:27:13;;;;;;;24.53;4.48;;;;;;;21.12;49.06;100580.36;;;;-52
2019/05/23 16:30:13;;;;;;;19.05;4.49;;;;;;;21.09;47.60;100580.18;;;;-49
2019/05/23 16:33:13;;;;;;;16.39;4.11;;;;;;;21.07;48.23;100578.19;;;;-49
2019/05/23 16:36:13;;;;;;;6.85;4.13;;;;;;;21.05;46.17;100571.79;;;;-56
2019/05/23 16:39:13;;;;;;;9.56;4.30;;;;;;;21.04;47.20;100572.29;;;;-56
2019/05/23 16:42:13;;;;;;;9.09;4.01;;;;;;;21.02;45.87;100569.08;;;;-51
2019/05/23 16:45:13;;;;;;;8.59;4.33;;;;;;;21.01;46.00;100571.80;;;;-61
2019/05/23 16:48:13;;;;;;;12.58;4.11;;;;;;;20.98;46.34;100577.92;;;;-62
2019/05/23 16:51:13;;;;;;;10.63;4.03;;;;;;;20.96;46.44;100575.13;;;;-60
2019/05/23 16:54:13;;;;;;;9.54;3.91;;;;;;;20.93;46.56;100574.94;;;;-61